sensor_id;sensor_type;location;lat;lon;timestamp;pressure;altitude;pressure_sealevel;temperature;humidity
77299;BME280;66361;52.034;20.656;2024-03-29T04:40:05;98750.00;;;7.06;70.43
77299;BME280;66361;52.034;20.656;2024-03-29T04:43:50;98753.44;;;6.89;70.84
77299;BME280;66361;52.034;20.656;2024-03-29T04:47:33;98756.16;;;6.86;71.85
77299;BME280;66361;52.034;20.656;2024-03-29T04:51:15;98767.22;;;6.93;71.87
77299;BME280;66361;52.034;20.656;2024-03-29T04:54:58;98771.53;;;6.94;71.44
77299;BME280;66361;52.034;20.656;2024-03-29T04:58:42;98767.78;;;6.80;72.20
77299;BME280;66361;52.034;20.656;2024-03-29T05:02:27;98771.69;;;6.72;72.73
77299;BME280;66361;52.034;20.656;2024-03-29T05:06:09;98770.44;;;6.62;73.30
77299;BME280;66361;52.034;20.656;2024-03-29T05:09:52;98769.78;;;6.57;74.39
77299;BME280;66361;52.034;20.656;2024-03-29T05:13:35;98762.47;;;6.82;73.59
77299;BME280;66361;52.034;20.656;2024-03-29T05:17:19;98766.84;;;7.00;73.19
77299;BME280;66361;52.034;20.656;2024-03-29T05:21:06;98772.44;;;7.11;73.06
77299;BME280;66361;52.034;20.656;2024-03-29T05:24:52;98764.75;;;7.43;71.62
77299;BME280;66361;52.034;20.656;2024-03-29T05:28:35;98772.41;;;7.97;70.49
77299;BME280;66361;52.034;20.656;2024-03-29T05:32:20;98772.50;;;8.92;68.14
77299;BME280;66361;52.034;20.656;2024-03-29T05:36:03;98765.94;;;13.52;56.94
77299;BME280;66361;52.034;20.656;2024-03-29T05:39:48;98767.25;;;15.47;49.30
77299;BME280;66361;52.034;20.656;2024-03-29T05:43:31;98783.50;;;16.88;45.59
77299;BME280;66361;52.034;20.656;2024-03-29T05:47:14;98782.66;;;17.85;43.13
77299;BME280;66361;52.034;20.656;2024-03-29T05:50:58;98781.34;;;18.74;39.63
77299;BME280;66361;52.034;20.656;2024-03-29T05:54:41;98788.50;;;19.46;38.22
77299;BME280;66361;52.034;20.656;2024-03-29T05:58:24;98789.66;;;20.23;36.80
77299;BME280;66361;52.034;20.656;2024-03-29T06:02:07;98787.75;;;20.33;36.92
77299;BME280;66361;52.034;20.656;2024-03-29T06:05:50;98797.97;;;20.37;36.10
77299;BME280;66361;52.034;20.656;2024-03-29T06:09:34;98807.03;;;19.75;37.95
77299;BME280;66361;52.034;20.656;2024-03-29T06:13:17;98816.75;;;20.97;35.05
77299;BME280;66361;52.034;20.656;2024-03-29T06:17:11;98831.41;;;21.61;34.98
77299;BME280;66361;52.034;20.656;2024-03-29T06:21:04;98817.88;;;22.11;32.60
77299;BME280;66361;52.034;20.656;2024-03-29T06:24:49;98821.19;;;21.65;32.98
77299;BME280;66361;52.034;20.656;2024-03-29T06:28:33;98827.88;;;20.51;35.39
77299;BME280;66361;52.034;20.656;2024-03-29T06:32:16;98838.13;;;19.58;37.20
77299;BME280;66361;52.034;20.656;2024-03-29T06:35:59;98849.75;;;21.32;34.53
77299;BME280;66361;52.034;20.656;2024-03-29T06:39:42;98858.31;;;20.67;34.67
77299;BME280;66361;52.034;20.656;2024-03-29T06:43:26;98856.84;;;20.73;34.63
77299;BME280;66361;52.034;20.656;2024-03-29T06:47:09;98869.88;;;22.91;33.01
77299;BME280;66361;52.034;20.656;2024-03-29T06:50:52;98883.06;;;22.38;32.64
77299;BME280;66361;52.034;20.656;2024-03-29T06:54:34;98888.22;;;22.15;32.17
77299;BME280;66361;52.034;20.656;2024-03-29T06:58:18;98867.81;;;24.10;30.65
77299;BME280;66361;52.034;20.656;2024-03-29T07:02:05;98883.81;;;22.95;31.44
77299;BME280;66361;52.034;20.656;2024-03-29T07:05:48;98871.72;;;20.93;33.96
77299;BME280;66361;52.034;20.656;2024-03-29T07:09:30;98879.78;;;23.46;32.62
77299;BME280;66361;52.034;20.656;2024-03-29T07:13:13;98861.22;;;22.24;31.96
77299;BME280;66361;52.034;20.656;2024-03-29T07:16:56;98864.66;;;22.90;31.92
77299;BME280;66361;52.034;20.656;2024-03-29T07:20:40;98861.78;;;24.46;29.93
77299;BME280;66361;52.034;20.656;2024-03-29T07:24:23;98864.44;;;21.45;33.20
77299;BME280;66361;52.034;20.656;2024-03-29T07:28:09;98867.81;;;23.57;32.16
77299;BME280;66361;52.034;20.656;2024-03-29T07:31:51;98882.00;;;25.17;29.92
77299;BME280;66361;52.034;20.656;2024-03-29T07:35:34;98872.81;;;25.76;28.83
77299;BME280;66361;52.034;20.656;2024-03-29T07:39:18;98864.78;;;25.83;28.27
77299;BME280;66361;52.034;20.656;2024-03-29T07:43:01;98879.00;;;24.97;30.06
77299;BME280;66361;52.034;20.656;2024-03-29T07:46:44;98876.91;;;24.09;30.02
77299;BME280;66361;52.034;20.656;2024-03-29T07:50:28;98881.53;;;23.70;32.38
77299;BME280;66361;52.034;20.656;2024-03-29T07:54:15;98888.34;;;22.94;31.32
77299;BME280;66361;52.034;20.656;2024-03-29T07:57:59;98882.06;;;23.26;30.63
77299;BME280;66361;52.034;20.656;2024-03-29T08:01:44;98898.16;;;22.47;32.29
77299;BME280;66361;52.034;20.656;2024-03-29T08:05:27;98911.06;;;22.84;31.32
77299;BME280;66361;52.034;20.656;2024-03-29T08:09:10;98904.81;;;23.94;29.71
77299;BME280;66361;52.034;20.656;2024-03-29T08:12:55;98905.06;;;23.29;31.05
77299;BME280;66361;52.034;20.656;2024-03-29T08:16:39;98895.34;;;23.28;31.48
77299;BME280;66361;52.034;20.656;2024-03-29T08:20:23;98895.81;;;24.47;29.80
77299;BME280;66361;52.034;20.656;2024-03-29T08:24:10;98893.31;;;23.69;31.47
77299;BME280;66361;52.034;20.656;2024-03-29T08:27:53;98893.53;;;24.96;30.85
77299;BME280;66361;52.034;20.656;2024-03-29T08:31:41;98897.69;;;23.31;30.13
77299;BME280;66361;52.034;20.656;2024-03-29T08:35:23;98924.13;;;24.51;30.42
77299;BME280;66361;52.034;20.656;2024-03-29T08:39:06;98926.31;;;24.47;28.77
77299;BME280;66361;52.034;20.656;2024-03-29T08:42:49;98924.50;;;23.00;31.05
77299;BME280;66361;52.034;20.656;2024-03-29T08:46:31;98925.72;;;23.44;30.83
77299;BME280;66361;52.034;20.656;2024-03-29T08:50:16;98917.44;;;23.54;31.95
77299;BME280;66361;52.034;20.656;2024-03-29T08:53:59;98934.50;;;24.31;30.51
77299;BME280;66361;52.034;20.656;2024-03-29T08:57:46;98933.06;;;25.92;29.18
77299;BME280;66361;52.034;20.656;2024-03-29T09:01:28;98932.44;;;23.48;30.45
77299;BME280;66361;52.034;20.656;2024-03-29T09:05:11;98950.69;;;23.77;32.14
77299;BME280;66361;52.034;20.656;2024-03-29T09:08:56;98934.44;;;24.16;31.26
77299;BME280;66361;52.034;20.656;2024-03-29T09:12:38;98937.66;;;24.65;29.91
77299;BME280;66361;52.034;20.656;2024-03-29T09:16:21;98939.00;;;24.16;30.38
77299;BME280;66361;52.034;20.656;2024-03-29T09:20:04;98940.88;;;24.15;30.73
77299;BME280;66361;52.034;20.656;2024-03-29T09:23:47;98955.50;;;24.44;29.74
77299;BME280;66361;52.034;20.656;2024-03-29T09:27:33;98946.56;;;24.20;30.12
77299;BME280;66361;52.034;20.656;2024-03-29T09:31:17;98944.53;;;23.52;30.60
77299;BME280;66361;52.034;20.656;2024-03-29T09:35:00;98940.94;;;24.07;30.31
77299;BME280;66361;52.034;20.656;2024-03-29T09:38:43;98935.16;;;23.79;29.41
77299;BME280;66361;52.034;20.656;2024-03-29T09:42:26;98938.09;;;24.23;29.65
77299;BME280;66361;52.034;20.656;2024-03-29T09:46:13;98941.31;;;23.57;30.54
77299;BME280;66361;52.034;20.656;2024-03-29T09:49:58;98945.00;;;23.64;29.77
77299;BME280;66361;52.034;20.656;2024-03-29T09:53:43;98953.13;;;21.86;31.31
77299;BME280;66361;52.034;20.656;2024-03-29T09:57:26;98966.44;;;22.04;31.13
77299;BME280;66361;52.034;20.656;2024-03-29T10:01:10;98949.41;;;22.53;31.32
77299;BME280;66361;52.034;20.656;2024-03-29T10:04:56;98952.56;;;24.76;29.00
77299;BME280;66361;52.034;20.656;2024-03-29T10:08:39;98944.91;;;23.41;30.64
77299;BME280;66361;52.034;20.656;2024-03-29T10:12:22;98941.44;;;23.72;30.56
77299;BME280;66361;52.034;20.656;2024-03-29T10:16:05;98927.19;;;23.94;30.48
77299;BME280;66361;52.034;20.656;2024-03-29T10:19:47;98934.84;;;23.82;30.03
77299;BME280;66361;52.034;20.656;2024-03-29T10:23:32;98945.56;;;23.43;30.04
77299;BME280;66361;52.034;20.656;2024-03-29T10:27:15;98944.50;;;23.05;31.77
77299;BME280;66361;52.034;20.656;2024-03-29T10:30:58;98945.56;;;21.81;33.31
77299;BME280;66361;52.034;20.656;2024-03-29T10:34:40;98940.19;;;20.62;32.82
77299;BME280;66361;52.034;20.656;2024-03-29T10:38:24;98947.91;;;21.16;34.12
77299;BME280;66361;52.034;20.656;2024-03-29T10:42:09;98953.13;;;21.18;34.73
77299;BME280;66361;52.034;20.656;2024-03-29T10:45:55;98941.97;;;21.05;34.18
77299;BME280;66361;52.034;20.656;2024-03-29T10:49:40;98950.34;;;20.05;34.20
77299;BME280;66361;52.034;20.656;2024-03-29T10:53:24;98946.03;;;20.83;33.56
77299;BME280;66361;52.034;20.656;2024-03-29T10:57:22;98944.81;;;20.77;34.91
77299;BME280;66361;52.034;20.656;2024-03-29T11:01:06;98942.09;;;20.52;34.30
77299;BME280;66361;52.034;20.656;2024-03-29T11:04:50;98951.19;;;20.59;37.13
77299;BME280;66361;52.034;20.656;2024-03-29T11:08:34;98949.88;;;19.92;34.63
77299;BME280;66361;52.034;20.656;2024-03-29T11:12:25;98943.69;;;20.44;35.43
77299;BME280;66361;52.034;20.656;2024-03-29T11:16:08;98934.69;;;19.65;35.49
77299;BME280;66361;52.034;20.656;2024-03-29T11:19:51;98945.19;;;19.94;36.23
77299;BME280;66361;52.034;20.656;2024-03-29T11:23:35;98938.00;;;19.77;35.45
77299;BME280;66361;52.034;20.656;2024-03-29T11:27:23;98923.56;;;20.23;35.82
77299;BME280;66361;52.034;20.656;2024-03-29T11:31:07;98922.22;;;19.46;36.35
77299;BME280;66361;52.034;20.656;2024-03-29T11:34:50;98931.34;;;19.53;37.39
77299;BME280;66361;52.034;20.656;2024-03-29T11:38:35;98930.44;;;18.98;35.65
77299;BME280;66361;52.034;20.656;2024-03-29T11:42:17;98926.50;;;19.02;37.34
77299;BME280;66361;52.034;20.656;2024-03-29T11:46:02;98945.72;;;19.15;36.89
77299;BME280;66361;52.034;20.656;2024-03-29T11:49:45;98946.72;;;18.68;36.86
77299;BME280;66361;52.034;20.656;2024-03-29T11:53:29;98936.59;;;19.18;36.12
77299;BME280;66361;52.034;20.656;2024-03-29T11:57:12;98949.94;;;19.18;36.96
77299;BME280;66361;52.034;20.656;2024-03-29T12:00:55;98939.41;;;19.07;35.42
77299;BME280;66361;52.034;20.656;2024-03-29T12:04:41;98927.63;;;19.00;38.00
77299;BME280;66361;52.034;20.656;2024-03-29T12:08:24;98942.09;;;19.07;37.01
77299;BME280;66361;52.034;20.656;2024-03-29T12:12:08;98942.34;;;19.13;37.75
77299;BME280;66361;52.034;20.656;2024-03-29T12:15:53;98948.19;;;18.61;36.90
77299;BME280;66361;52.034;20.656;2024-03-29T12:19:36;98953.56;;;18.89;36.40
77299;BME280;66361;52.034;20.656;2024-03-29T12:23:21;98954.09;;;18.93;36.22
77299;BME280;66361;52.034;20.656;2024-03-29T12:27:04;98944.72;;;18.60;35.71
77299;BME280;66361;52.034;20.656;2024-03-29T12:30:48;98954.16;;;18.45;36.28
77299;BME280;66361;52.034;20.656;2024-03-29T12:34:31;98944.97;;;18.76;36.62
77299;BME280;66361;52.034;20.656;2024-03-29T12:38:14;98962.28;;;18.72;36.11
77299;BME280;66361;52.034;20.656;2024-03-29T12:41:59;98963.97;;;18.73;34.70
77299;BME280;66361;52.034;20.656;2024-03-29T12:45:43;98963.97;;;18.44;35.46
77299;BME280;66361;52.034;20.656;2024-03-29T12:49:27;98970.84;;;18.57;36.03
77299;BME280;66361;52.034;20.656;2024-03-29T12:53:13;98955.25;;;18.52;35.32
77299;BME280;66361;52.034;20.656;2024-03-29T12:56:58;98958.22;;;18.59;36.61
77299;BME280;66361;52.034;20.656;2024-03-29T13:00:44;98969.59;;;18.22;34.05
77299;BME280;66361;52.034;20.656;2024-03-29T13:04:26;98957.53;;;18.37;34.52
77299;BME280;66361;52.034;20.656;2024-03-29T13:08:11;98948.81;;;18.16;33.93
77299;BME280;66361;52.034;20.656;2024-03-29T13:11:57;98962.00;;;18.18;35.69
77299;BME280;66361;52.034;20.656;2024-03-29T13:15:40;98964.09;;;18.04;33.89
77299;BME280;66361;52.034;20.656;2024-03-29T13:19:24;98960.28;;;17.97;35.62
77299;BME280;66361;52.034;20.656;2024-03-29T13:23:07;98963.88;;;17.67;34.52
77299;BME280;66361;52.034;20.656;2024-03-29T13:26:50;98967.69;;;17.74;34.14
77299;BME280;66361;52.034;20.656;2024-03-29T13:30:34;98980.75;;;17.78;34.59
77299;BME280;66361;52.034;20.656;2024-03-29T13:34:18;98984.03;;;18.00;34.45
77299;BME280;66361;52.034;20.656;2024-03-29T13:38:01;98993.81;;;17.81;33.60
77299;BME280;66361;52.034;20.656;2024-03-29T13:41:43;98985.50;;;17.34;33.34
77299;BME280;66361;52.034;20.656;2024-03-29T13:45:26;98995.59;;;17.10;33.73
77299;BME280;66361;52.034;20.656;2024-03-29T13:49:10;98980.72;;;17.38;34.62
77299;BME280;66361;52.034;20.656;2024-03-29T13:52:54;98994.19;;;17.66;35.51
77299;BME280;66361;52.034;20.656;2024-03-29T13:56:37;98986.94;;;17.78;35.12
77299;BME280;66361;52.034;20.656;2024-03-29T14:00:20;98980.94;;;17.55;33.91
77299;BME280;66361;52.034;20.656;2024-03-29T14:04:03;98969.97;;;17.58;35.18
77299;BME280;66361;52.034;20.656;2024-03-29T14:07:51;98963.00;;;17.57;34.30
77299;BME280;66361;52.034;20.656;2024-03-29T14:11:36;98965.78;;;17.56;35.56
77299;BME280;66361;52.034;20.656;2024-03-29T14:15:26;98953.50;;;17.64;37.94
77299;BME280;66361;52.034;20.656;2024-03-29T14:19:08;98958.16;;;17.72;35.64
77299;BME280;66361;52.034;20.656;2024-03-29T14:22:55;98951.72;;;17.94;35.72
77299;BME280;66361;52.034;20.656;2024-03-29T14:26:39;98955.25;;;17.94;35.92
77299;BME280;66361;52.034;20.656;2024-03-29T14:30:22;98948.88;;;17.76;34.83
77299;BME280;66361;52.034;20.656;2024-03-29T14:34:05;98950.72;;;17.85;37.36
77299;BME280;66361;52.034;20.656;2024-03-29T14:37:48;98959.16;;;17.90;35.70
77299;BME280;66361;52.034;20.656;2024-03-29T14:41:32;98954.63;;;17.81;34.72
77299;BME280;66361;52.034;20.656;2024-03-29T14:45:18;98950.41;;;17.69;35.63
77299;BME280;66361;52.034;20.656;2024-03-29T14:49:00;98957.91;;;17.54;36.23
77299;BME280;66361;52.034;20.656;2024-03-29T14:52:46;98948.47;;;17.41;34.24
77299;BME280;66361;52.034;20.656;2024-03-29T14:56:29;98951.75;;;17.23;34.44
77299;BME280;66361;52.034;20.656;2024-03-29T15:00:14;98952.72;;;17.13;36.15
77299;BME280;66361;52.034;20.656;2024-03-29T15:03:57;98954.56;;;16.91;37.38
77299;BME280;66361;52.034;20.656;2024-03-29T15:07:40;98942.44;;;16.78;35.75
77299;BME280;66361;52.034;20.656;2024-03-29T15:11:23;98948.22;;;16.62;37.56
77299;BME280;66361;52.034;20.656;2024-03-29T15:15:07;98967.22;;;16.57;38.02
77299;BME280;66361;52.034;20.656;2024-03-29T15:18:51;98964.59;;;16.46;36.44
77299;BME280;66361;52.034;20.656;2024-03-29T15:22:34;98964.16;;;16.41;36.68
77299;BME280;66361;52.034;20.656;2024-03-29T15:26:16;98965.88;;;16.31;35.78
77299;BME280;66361;52.034;20.656;2024-03-29T15:30:00;98962.34;;;16.10;36.88
77299;BME280;66361;52.034;20.656;2024-03-29T15:33:42;98964.00;;;15.79;39.36
77299;BME280;66361;52.034;20.656;2024-03-29T15:37:26;98961.50;;;15.55;40.32
77299;BME280;66361;52.034;20.656;2024-03-29T15:41:09;98948.06;;;15.34;41.49
77299;BME280;66361;52.034;20.656;2024-03-29T15:44:52;98936.59;;;15.34;40.49
77299;BME280;66361;52.034;20.656;2024-03-29T15:48:34;98933.97;;;15.23;41.60
77299;BME280;66361;52.034;20.656;2024-03-29T15:52:17;98940.97;;;15.13;42.36
77299;BME280;66361;52.034;20.656;2024-03-29T15:56:01;98940.13;;;15.23;40.83
77299;BME280;66361;52.034;20.656;2024-03-29T15:59:44;98948.34;;;15.09;42.02
77299;BME280;66361;52.034;20.656;2024-03-29T16:03:28;98945.78;;;14.96;42.88
77299;BME280;66361;52.034;20.656;2024-03-29T16:07:11;98940.47;;;14.85;42.69
77299;BME280;66361;52.034;20.656;2024-03-29T16:10:56;98947.44;;;14.75;43.03
77299;BME280;66361;52.034;20.656;2024-03-29T16:14:40;98940.81;;;14.70;43.34
77299;BME280;66361;52.034;20.656;2024-03-29T16:18:23;98933.66;;;14.59;43.66
77299;BME280;66361;52.034;20.656;2024-03-29T16:22:07;98935.66;;;14.44;43.83
77299;BME280;66361;52.034;20.656;2024-03-29T16:25:51;98933.69;;;14.24;45.35
77299;BME280;66361;52.034;20.656;2024-03-29T16:29:34;98929.94;;;14.03;46.74
77299;BME280;66361;52.034;20.656;2024-03-29T16:33:19;98934.53;;;13.77;47.84
77299;BME280;66361;52.034;20.656;2024-03-29T16:37:02;98932.25;;;13.60;48.31
77299;BME280;66361;52.034;20.656;2024-03-29T16:40:44;98925.75;;;13.40;49.17
77299;BME280;66361;52.034;20.656;2024-03-29T16:44:27;98920.47;;;13.27;47.75
77299;BME280;66361;52.034;20.656;2024-03-29T16:48:10;98924.53;;;13.20;49.14
77299;BME280;66361;52.034;20.656;2024-03-29T16:51:55;98923.09;;;12.91;50.32
77299;BME280;66361;52.034;20.656;2024-03-29T16:55:36;98923.41;;;12.61;51.85
77299;BME280;66361;52.034;20.656;2024-03-29T16:59:20;98924.13;;;12.38;50.71
77299;BME280;66361;52.034;20.656;2024-03-29T17:03:03;98936.34;;;12.13;51.11
77299;BME280;66361;52.034;20.656;2024-03-29T17:06:46;98945.22;;;11.85;51.69
77299;BME280;66361;52.034;20.656;2024-03-29T17:10:30;98945.13;;;11.60;52.92
77299;BME280;66361;52.034;20.656;2024-03-29T17:14:12;98944.25;;;11.33;54.38
77299;BME280;66361;52.034;20.656;2024-03-29T17:17:55;98941.97;;;11.12;53.94
77299;BME280;66361;52.034;20.656;2024-03-29T17:21:37;98936.03;;;10.95;55.13
77299;BME280;66361;52.034;20.656;2024-03-29T17:25:19;98932.84;;;10.75;55.39
77299;BME280;66361;52.034;20.656;2024-03-29T17:29:04;98927.66;;;10.60;55.77
77299;BME280;66361;52.034;20.656;2024-03-29T17:32:46;98931.41;;;10.42;55.83
77299;BME280;66361;52.034;20.656;2024-03-29T17:36:30;98927.41;;;10.20;57.54
77299;BME280;66361;52.034;20.656;2024-03-29T17:40:14;98937.72;;;10.09;58.04
77299;BME280;66361;52.034;20.656;2024-03-29T17:43:58;98935.53;;;10.02;57.84
77299;BME280;66361;52.034;20.656;2024-03-29T17:47:41;98940.94;;;9.98;57.22
77299;BME280;66361;52.034;20.656;2024-03-29T17:51:24;98945.34;;;9.84;57.91
77299;BME280;66361;52.034;20.656;2024-03-29T17:55:07;98940.19;;;9.67;59.62
77299;BME280;66361;52.034;20.656;2024-03-29T17:58:50;98939.59;;;9.62;58.51
77299;BME280;66361;52.034;20.656;2024-03-29T18:02:33;98948.34;;;9.46;61.16
77299;BME280;66361;52.034;20.656;2024-03-29T18:06:17;98956.75;;;9.37;60.69
77299;BME280;66361;52.034;20.656;2024-03-29T18:09:59;98949.13;;;9.33;61.14
77299;BME280;66361;52.034;20.656;2024-03-29T18:13:41;98957.47;;;9.24;61.38
77299;BME280;66361;52.034;20.656;2024-03-29T18:17:24;98953.47;;;9.16;60.60
77299;BME280;66361;52.034;20.656;2024-03-29T18:21:06;98951.25;;;9.09;61.41
77299;BME280;66361;52.034;20.656;2024-03-29T18:24:51;98943.78;;;9.01;61.01
77299;BME280;66361;52.034;20.656;2024-03-29T18:28:35;98942.50;;;8.93;62.40
77299;BME280;66361;52.034;20.656;2024-03-29T18:32:20;98934.97;;;9.02;60.43
77299;BME280;66361;52.034;20.656;2024-03-29T18:36:03;98941.31;;;8.98;61.96
77299;BME280;66361;52.034;20.656;2024-03-29T18:39:46;98937.72;;;8.83;62.14
77299;BME280;66361;52.034;20.656;2024-03-29T18:43:30;98941.25;;;8.67;62.67
77299;BME280;66361;52.034;20.656;2024-03-29T18:47:12;98944.28;;;8.59;63.27
77299;BME280;66361;52.034;20.656;2024-03-29T18:50:54;98934.63;;;8.75;62.38
77299;BME280;66361;52.034;20.656;2024-03-29T18:54:37;98934.41;;;8.80;62.82
77299;BME280;66361;52.034;20.656;2024-03-29T18:58:19;98935.59;;;8.90;62.72
77299;BME280;66361;52.034;20.656;2024-03-29T19:02:03;98922.34;;;9.25;62.73
77299;BME280;66361;52.034;20.656;2024-03-29T19:05:45;98910.72;;;9.44;61.32
77299;BME280;66361;52.034;20.656;2024-03-29T19:09:28;98915.16;;;9.89;61.27
77299;BME280;66361;52.034;20.656;2024-03-29T19:13:10;98914.88;;;10.24;58.67
77299;BME280;66361;52.034;20.656;2024-03-29T19:16:54;98916.50;;;10.26;59.34
77299;BME280;66361;52.034;20.656;2024-03-29T19:20:38;98917.06;;;10.31;60.42
77299;BME280;66361;52.034;20.656;2024-03-29T19:24:21;98910.66;;;10.35;60.14
77299;BME280;66361;52.034;20.656;2024-03-29T19:28:04;98912.00;;;10.43;60.34
77299;BME280;66361;52.034;20.656;2024-03-29T19:31:47;98919.81;;;10.44;59.93
77299;BME280;66361;52.034;20.656;2024-03-29T19:35:29;98913.44;;;10.62;58.03
77299;BME280;66361;52.034;20.656;2024-03-29T19:39:14;98918.97;;;10.58;58.95
77299;BME280;66361;52.034;20.656;2024-03-29T19:42:57;98910.34;;;10.56;57.82
77299;BME280;66361;52.034;20.656;2024-03-29T19:46:40;98904.44;;;10.36;58.42
77299;BME280;66361;52.034;20.656;2024-03-29T19:50:24;98902.84;;;10.20;57.44
77299;BME280;66361;52.034;20.656;2024-03-29T19:54:07;98905.94;;;10.12;57.49
77299;BME280;66361;52.034;20.656;2024-03-29T19:57:51;98903.66;;;9.76;60.10
77299;BME280;66361;52.034;20.656;2024-03-29T20:01:33;98904.53;;;9.61;59.15
77299;BME280;66361;52.034;20.656;2024-03-29T20:05:16;98899.25;;;9.30;60.70
77299;BME280;66361;52.034;20.656;2024-03-29T20:08:58;98886.66;;;9.19;60.62
77299;BME280;66361;52.034;20.656;2024-03-29T20:12:41;98896.03;;;9.09;60.92
77299;BME280;66361;52.034;20.656;2024-03-29T20:16:25;98896.69;;;9.12;61.05
77299;BME280;66361;52.034;20.656;2024-03-29T20:20:09;98903.00;;;9.10;60.61
77299;BME280;66361;52.034;20.656;2024-03-29T20:23:51;98903.28;;;9.04;60.61
77299;BME280;66361;52.034;20.656;2024-03-29T20:27:34;98908.91;;;9.13;61.06
77299;BME280;66361;52.034;20.656;2024-03-29T20:31:16;98908.22;;;9.26;60.34
77299;BME280;66361;52.034;20.656;2024-03-29T20:35:00;98909.97;;;9.42;61.03
77299;BME280;66361;52.034;20.656;2024-03-29T20:38:43;98906.94;;;9.80;60.02
77299;BME280;66361;52.034;20.656;2024-03-29T20:42:26;98903.59;;;10.36;58.04
77299;BME280;66361;52.034;20.656;2024-03-29T20:46:09;98906.38;;;10.63;57.44
77299;BME280;66361;52.034;20.656;2024-03-29T20:49:51;98907.31;;;10.90;57.14
77299;BME280;66361;52.034;20.656;2024-03-29T20:53:35;98904.09;;;11.28;54.06
77299;BME280;66361;52.034;20.656;2024-03-29T20:57:18;98905.81;;;11.56;54.25
77299;BME280;66361;52.034;20.656;2024-03-29T21:01:00;98906.88;;;11.39;54.44
77299;BME280;66361;52.034;20.656;2024-03-29T21:04:42;98904.50;;;11.48;53.85
77299;BME280;66361;52.034;20.656;2024-03-29T21:08:44;98914.63;;;11.42;54.37
77299;BME280;66361;52.034;20.656;2024-03-29T21:12:27;98898.34;;;11.35;55.08
77299;BME280;66361;52.034;20.656;2024-03-29T21:16:10;98903.34;;;11.26;54.57
77299;BME280;66361;52.034;20.656;2024-03-29T21:19:53;98912.03;;;10.99;55.44
77299;BME280;66361;52.034;20.656;2024-03-29T21:23:35;98904.84;;;10.87;55.71
77299;BME280;66361;52.034;20.656;2024-03-29T21:27:23;98907.22;;;10.63;56.21
77299;BME280;66361;52.034;20.656;2024-03-29T21:31:05;98907.50;;;10.59;57.18
77299;BME280;66361;52.034;20.656;2024-03-29T21:34:48;98907.47;;;10.45;57.36
77299;BME280;66361;52.034;20.656;2024-03-29T21:38:30;98915.56;;;10.27;57.76
77299;BME280;66361;52.034;20.656;2024-03-29T21:42:13;98915.06;;;10.21;57.25
77299;BME280;66361;52.034;20.656;2024-03-29T21:45:57;98924.06;;;10.03;58.72
77299;BME280;66361;52.034;20.656;2024-03-29T21:49:46;98929.63;;;9.82;58.51
77299;BME280;66361;52.034;20.656;2024-03-29T21:53:29;98927.25;;;9.62;58.98
77299;BME280;66361;52.034;20.656;2024-03-29T21:57:12;98933.06;;;9.53;60.32
77299;BME280;66361;52.034;20.656;2024-03-29T22:00:57;98919.72;;;9.40;60.82
77299;BME280;66361;52.034;20.656;2024-03-29T22:04:40;98913.22;;;9.32;61.24
77299;BME280;66361;52.034;20.656;2024-03-29T22:08:24;98908.59;;;9.35;62.06
77299;BME280;66361;52.034;20.656;2024-03-29T22:12:09;98901.47;;;9.37;61.82
77299;BME280;66361;52.034;20.656;2024-03-29T22:15:52;98893.75;;;9.34;62.11
77299;BME280;66361;52.034;20.656;2024-03-29T22:19:36;98896.72;;;9.44;62.33
77299;BME280;66361;52.034;20.656;2024-03-29T22:23:19;98896.81;;;9.42;62.42
77299;BME280;66361;52.034;20.656;2024-03-29T22:27:00;98910.66;;;9.46;62.18
77299;BME280;66361;52.034;20.656;2024-03-29T22:30:43;98915.22;;;9.42;62.33
77299;BME280;66361;52.034;20.656;2024-03-29T22:34:28;98916.56;;;9.34;62.52
77299;BME280;66361;52.034;20.656;2024-03-29T22:38:12;98911.63;;;9.28;62.71
77299;BME280;66361;52.034;20.656;2024-03-29T22:41:55;98915.84;;;9.32;63.27
77299;BME280;66361;52.034;20.656;2024-03-29T22:45:38;98918.47;;;9.47;63.59
77299;BME280;66361;52.034;20.656;2024-03-29T22:49:21;98925.09;;;9.54;63.96
77299;BME280;66361;52.034;20.656;2024-03-29T22:53:03;98924.63;;;9.62;64.52
77299;BME280;66361;52.034;20.656;2024-03-29T22:56:50;98915.97;;;9.76;63.42
77299;BME280;66361;52.034;20.656;2024-03-29T23:00:33;98922.56;;;9.83;64.53
77299;BME280;66361;52.034;20.656;2024-03-29T23:04:15;98926.72;;;9.87;64.73
77299;BME280;66361;52.034;20.656;2024-03-29T23:07:59;98925.03;;;9.86;64.85
77299;BME280;66361;52.034;20.656;2024-03-29T23:11:42;98931.25;;;9.99;64.64
77299;BME280;66361;52.034;20.656;2024-03-29T23:15:26;98931.09;;;10.02;64.84
77299;BME280;66361;52.034;20.656;2024-03-29T23:19:08;98928.91;;;9.94;64.92
77299;BME280;66361;52.034;20.656;2024-03-29T23:22:51;98938.38;;;9.83;65.38
77299;BME280;66361;52.034;20.656;2024-03-29T23:26:38;98928.25;;;9.91;65.21
77299;BME280;66361;52.034;20.656;2024-03-29T23:30:21;98932.03;;;10.01;65.67
77299;BME280;66361;52.034;20.656;2024-03-29T23:34:05;98935.59;;;10.00;65.25
77299;BME280;66361;52.034;20.656;2024-03-29T23:37:49;98928.84;;;9.96;65.48
77299;BME280;66361;52.034;20.656;2024-03-29T23:41:31;98934.88;;;9.98;66.30
77299;BME280;66361;52.034;20.656;2024-03-29T23:45:13;98941.81;;;9.99;66.19
77299;BME280;66361;52.034;20.656;2024-03-29T23:48:55;98933.81;;;10.30;66.45
77299;BME280;66361;52.034;20.656;2024-03-29T23:52:39;98935.44;;;10.33;65.84
77299;BME280;66361;52.034;20.656;2024-03-29T23:56:22;98928.53;;;10.30;65.60
